createdAt,value
2024-02-01T00:04:16.984Z,18.47
2024-02-01T00:09:10.216Z,18.43
2024-02-01T00:14:04.809Z,18.20
2024-02-01T00:18:58.185Z,15.93
2024-02-01T00:23:51.463Z,17.97
2024-02-01T00:28:44.732Z,16.73
2024-02-01T00:33:39.624Z,16.73
2024-02-01T00:38:32.912Z,19.93
2024-02-01T00:43:26.096Z,17.73
2024-02-01T00:48:19.463Z,16.17
2024-02-01T00:53:14.136Z,15.63
2024-02-01T00:58:07.247Z,15.17
2024-02-01T01:03:00.879Z,14.80
2024-02-01T01:07:54.360Z,14.60
2024-02-01T01:12:49.441Z,14.20
2024-02-01T01:17:42.841Z,14.07
2024-02-01T01:22:36.057Z,14.03
2024-02-01T01:27:29.285Z,15.77
2024-02-01T01:32:23.890Z,14.70
2024-02-01T01:37:17.149Z,14.60
2024-02-01T01:42:10.423Z,13.53
2024-02-01T01:47:03.848Z,14.87
2024-02-01T01:51:59.096Z,14.30
2024-02-01T01:56:55.515Z,14.30
2024-02-01T02:01:50.180Z,14.10
2024-02-01T02:06:44.606Z,14.63
2024-02-01T02:11:39.626Z,14.57
2024-02-01T02:16:38.242Z,17.50
2024-02-01T02:21:33.584Z,17.93
2024-02-01T02:26:28.257Z,17.07
2024-02-01T02:31:21.551Z,16.10
2024-02-01T02:36:14.908Z,14.20
2024-02-01T02:41:10.857Z,16.03
2024-02-01T02:46:05.741Z,16.77
2024-02-01T02:50:59.002Z,15.10
2024-02-01T02:55:52.276Z,14.30
2024-02-01T03:00:48.491Z,14.90
2024-02-01T03:05:43.428Z,14.63
2024-02-01T03:10:36.687Z,16.60
2024-02-01T03:15:30.488Z,13.60
2024-02-01T03:20:24.602Z,13.93
2024-02-01T03:25:19.638Z,15.17
2024-02-01T03:30:14.106Z,15.20
2024-02-01T03:35:07.868Z,14.73
2024-02-01T03:40:02.237Z,14.13
2024-02-01T03:44:56.861Z,14.60
2024-02-01T03:49:50.641Z,14.80
2024-02-01T03:54:43.803Z,14.53
2024-02-01T03:59:37.022Z,14.93
2024-02-01T04:04:31.761Z,13.20
2024-02-01T04:09:25.501Z,13.00
2024-02-01T04:14:18.888Z,13.57
2024-02-01T04:19:14.295Z,13.63
2024-02-01T04:24:09.270Z,14.10
2024-02-01T04:29:02.479Z,12.80
2024-02-01T04:33:59.421Z,12.73
2024-02-01T04:38:53.193Z,18.53
2024-02-01T04:43:48.036Z,15.20
2024-02-01T04:48:42.252Z,18.07
2024-02-01T04:53:41.886Z,18.83
2024-02-01T04:58:37.039Z,16.63
2024-02-01T05:03:32.721Z,14.80
2024-02-01T05:08:26.120Z,12.33
2024-02-01T05:13:23.891Z,12.73
2024-02-01T05:18:17.453Z,17.17
2024-02-01T05:23:12.479Z,13.13
2024-02-01T05:28:11.028Z,13.50
2024-02-01T05:33:05.352Z,13.03
2024-02-01T05:38:01.670Z,17.47
2024-02-01T05:42:56.809Z,15.80
2024-02-01T05:47:52.898Z,15.93
2024-02-01T05:52:46.585Z,17.10
2024-02-01T05:57:40.303Z,16.40
2024-02-01T06:02:35.178Z,19.77
2024-02-01T06:07:28.527Z,21.03
2024-02-01T06:12:21.882Z,25.03
2024-02-01T06:17:15.038Z,46.50
2024-02-01T06:22:09.605Z,28.50
2024-02-01T06:27:03.510Z,20.53
2024-02-01T06:31:56.823Z,24.23
2024-02-01T06:36:54.585Z,17.90
2024-02-01T06:41:52.362Z,24.30
2024-02-01T06:47:07.242Z,22.87
2024-02-01T06:52:14.872Z,18.67
2024-02-01T06:57:15.072Z,14.73
2024-02-01T07:02:13.761Z,10.20
2024-02-01T07:07:19.788Z,16.60
2024-02-01T07:12:31.588Z,19.57
2024-02-01T07:17:33.207Z,19.30
2024-02-01T07:23:02.361Z,19.10
2024-02-01T07:28:14.393Z,18.23
2024-02-01T07:33:25.467Z,19.57
2024-02-01T07:43:50.052Z,22.47
2024-02-01T07:49:01.232Z,11.37
2024-02-01T07:54:12.436Z,15.80
2024-02-01T07:59:11.820Z,13.48
2024-02-01T08:04:14.562Z,17.90
2024-02-01T08:09:13.471Z,15.43
2024-02-01T08:14:08.345Z,11.47
2024-02-01T08:19:01.649Z,14.40
2024-02-01T08:23:56.265Z,11.00
2024-02-01T08:28:49.711Z,11.07
2024-02-01T08:33:45.812Z,9.67
2024-02-01T08:38:40.178Z,13.43
2024-02-01T08:43:39.536Z,15.97
2024-02-01T08:48:32.822Z,13.70
2024-02-01T08:53:28.288Z,10.30
2024-02-01T08:58:22.301Z,9.30
2024-02-01T09:03:18.482Z,8.47
2024-02-01T09:08:13.953Z,9.00
2024-02-01T09:13:16.651Z,10.33
2024-02-01T09:18:12.245Z,7.60
2024-02-01T09:23:06.279Z,6.27
2024-02-01T09:28:00.304Z,7.40
2024-02-01T09:32:58.301Z,7.53
2024-02-01T09:37:53.704Z,7.03
2024-02-01T09:42:49.032Z,6.80
2024-02-01T09:47:47.623Z,6.65
2024-02-01T09:52:44.190Z,6.70
2024-02-01T09:57:41.560Z,7.32
2024-02-01T10:02:35.408Z,8.80
2024-02-01T10:07:28.718Z,8.73
2024-02-01T10:12:27.083Z,8.05
2024-02-01T10:17:21.100Z,8.73
2024-02-01T10:22:14.320Z,7.65
2024-02-01T10:27:09.283Z,6.80
2024-02-01T10:32:07.283Z,8.60
2024-02-01T10:37:02.703Z,7.70
2024-02-01T10:42:00.892Z,7.50
2024-02-01T10:46:58.078Z,9.07
2024-02-01T10:51:52.864Z,8.77
2024-02-01T10:56:46.694Z,7.53
2024-02-01T11:01:41.739Z,9.50
2024-02-01T11:06:37.485Z,9.00
2024-02-01T11:11:35.574Z,9.65
2024-02-01T11:16:39.093Z,8.75
2024-02-01T11:21:33.321Z,8.52
2024-02-01T11:26:26.694Z,8.02
2024-02-01T11:31:30.645Z,8.90
2024-02-01T11:36:31.477Z,11.73
2024-02-01T11:41:24.840Z,9.90
2024-02-01T11:46:21.735Z,9.90
2024-02-01T11:51:15.583Z,9.93
2024-02-01T11:56:09.424Z,9.50
2024-02-01T12:01:10.677Z,9.52
2024-02-01T12:06:15.373Z,9.60
2024-02-01T12:11:14.017Z,9.00
2024-02-01T12:16:11.388Z,8.77
2024-02-01T12:21:12.805Z,9.57
2024-02-01T12:26:07.836Z,9.52
2024-02-01T12:31:11.729Z,10.90
2024-02-01T12:36:05.725Z,11.13
2024-02-01T12:40:59.012Z,9.38
2024-02-01T12:45:53.645Z,9.68
2024-02-01T12:50:49.768Z,9.57
2024-02-01T12:55:43.395Z,10.73
2024-02-01T13:00:36.931Z,11.02
2024-02-01T13:05:31.922Z,8.85
2024-02-01T13:10:25.889Z,9.65
2024-02-01T13:15:19.193Z,9.45
2024-02-01T13:20:21.198Z,10.10
2024-02-01T13:25:20.253Z,9.57
2024-02-01T13:30:14.674Z,9.40
2024-02-01T13:35:08.740Z,10.77
2024-02-01T13:40:02.125Z,10.65
2024-02-01T13:44:57.150Z,11.95
2024-02-01T13:49:57.766Z,11.40
2024-02-01T14:00:00.905Z,17.13
2024-02-01T14:05:04.089Z,10.68
2024-02-01T14:09:59.835Z,10.48
2024-02-01T14:14:53.206Z,12.20
2024-02-01T14:19:47.429Z,13.52
2024-02-01T14:24:45.893Z,15.57
2024-02-01T14:29:39.297Z,13.18
2024-02-01T14:34:32.762Z,19.90
2024-02-01T14:39:27.489Z,15.88
2024-02-01T14:44:22.604Z,16.80
2024-02-01T14:49:16.339Z,15.77
2024-02-01T14:54:09.952Z,15.77
2024-02-01T14:59:03.603Z,16.80
2024-02-01T15:03:58.973Z,16.07
2024-02-01T15:08:53.981Z,15.70
2024-02-01T15:13:47.352Z,17.13
2024-02-01T15:18:41.041Z,14.77
2024-02-01T15:23:35.737Z,16.30
2024-02-01T15:28:29.780Z,18.27
2024-02-01T15:33:24.096Z,18.93
2024-02-01T15:38:17.575Z,20.67
2024-02-01T15:43:13.913Z,24.70
2024-02-01T15:48:07.952Z,26.57
2024-02-01T15:53:01.420Z,28.87
2024-02-01T15:57:56.520Z,30.97
2024-02-01T16:02:56.934Z,42.70
2024-02-01T16:07:53.670Z,48.88
2024-02-01T16:12:46.923Z,54.77
2024-02-01T16:17:42.853Z,56.23
2024-02-01T16:22:52.685Z,59.47
2024-02-01T16:28:08.419Z,61.70
2024-02-01T16:33:02.101Z,58.13
2024-02-01T16:37:58.662Z,64.23
2024-02-01T16:42:52.090Z,62.07
2024-02-01T16:47:50.985Z,60.87
2024-02-01T16:52:54.728Z,62.80
2024-02-01T16:57:51.577Z,70.87
2024-02-01T17:02:55.730Z,73.87
2024-02-01T17:07:51.104Z,72.57
2024-02-01T17:12:51.046Z,75.00
2024-02-01T17:17:54.760Z,73.30
2024-02-01T17:22:48.730Z,67.63
2024-02-01T17:27:44.590Z,69.00
2024-02-01T17:32:39.689Z,64.90
2024-02-01T17:37:40.527Z,64.87
2024-02-01T17:47:46.411Z,67.00
2024-02-01T17:53:05.413Z,84.50
2024-02-01T17:58:04.453Z,78.93
2024-02-01T18:03:02.045Z,71.30
2024-02-01T18:08:06.905Z,97.83
2024-02-01T18:13:02.736Z,106.10
2024-02-01T18:17:57.666Z,99.33
2024-02-01T18:22:54.488Z,97.97
2024-02-01T18:27:54.157Z,108.30
2024-02-01T18:32:47.664Z,72.20
2024-02-01T18:37:45.319Z,73.77
2024-02-01T18:48:33.417Z,65.77
2024-02-01T18:53:38.083Z,58.97
2024-02-01T18:58:41.929Z,67.40
2024-02-01T19:04:06.691Z,77.50
2024-02-01T19:09:06.404Z,84.80
2024-02-01T19:14:04.644Z,63.87
2024-02-01T19:19:01.421Z,52.07
2024-02-01T19:24:02.992Z,58.03
2024-02-01T19:29:01.541Z,59.67
2024-02-01T19:34:05.158Z,48.83
2024-02-01T19:39:16.301Z,51.17
2024-02-01T19:44:10.155Z,45.97
2024-02-01T19:49:19.929Z,44.37
2024-02-01T19:54:16.033Z,41.90
2024-02-01T19:59:09.462Z,40.83
2024-02-01T20:10:15.439Z,52.57
2024-02-01T20:15:11.006Z,48.97
2024-02-01T20:20:16.243Z,43.87
2024-02-01T20:25:21.663Z,44.33
2024-02-01T20:30:21.725Z,42.97
2024-02-01T20:35:19.875Z,41.10
2024-02-01T20:40:33.608Z,37.63
2024-02-01T20:45:27.013Z,36.63
2024-02-01T20:50:35.202Z,36.73
2024-02-01T20:55:30.017Z,42.57
2024-02-01T21:00:25.841Z,45.67
2024-02-01T21:05:34.775Z,57.77
2024-02-01T21:10:47.391Z,49.57
2024-02-01T21:15:41.864Z,48.70
2024-02-01T21:20:38.872Z,46.27
2024-02-01T21:26:10.454Z,50.13
2024-02-01T21:31:04.688Z,48.42
2024-02-01T21:36:00.028Z,43.97
2024-02-01T21:40:56.774Z,37.73
2024-02-01T21:45:50.196Z,32.23
2024-02-01T21:50:43.948Z,28.57
2024-02-01T21:55:53.478Z,27.63
2024-02-01T22:00:47.016Z,26.43
2024-02-01T22:05:55.316Z,25.07
2024-02-01T22:10:50.387Z,27.10
2024-02-01T22:15:46.580Z,24.57
2024-02-01T22:20:39.908Z,25.13
2024-02-01T22:25:35.940Z,24.50
2024-02-01T22:30:30.803Z,25.10
2024-02-01T22:35:24.210Z,21.80
2024-02-01T22:40:17.664Z,22.63
2024-02-01T22:45:11.411Z,21.97
2024-02-01T22:50:06.434Z,20.50
2024-02-01T22:55:00.063Z,17.63
2024-02-01T22:59:53.395Z,16.53
2024-02-01T23:04:47.790Z,15.40
2024-02-01T23:09:42.389Z,15.87
2024-02-01T23:14:35.590Z,15.40
2024-02-01T23:19:29.022Z,13.00
2024-02-01T23:24:24.318Z,12.33
2024-02-01T23:29:18.963Z,11.80
2024-02-01T23:34:12.831Z,13.53
2024-02-01T23:39:06.785Z,14.43
2024-02-01T23:44:02.622Z,13.03
2024-02-01T23:48:57.682Z,12.83
2024-02-01T23:53:51.082Z,15.13
2024-02-01T23:58:44.366Z,15.70
